sensor_id;sensor_type;location;lat;lon;timestamp;pressure;altitude;pressure_sealevel;temperature;humidity
74529;BME280;63009;52.584;5.932;2023-09-19T00:00:26;100462.66;;;13.88;100.00
74529;BME280;63009;52.584;5.932;2023-09-19T00:02:56;100467.84;;;13.90;100.00
74529;BME280;63009;52.584;5.932;2023-09-19T00:05:22;100461.09;;;13.86;100.00
74529;BME280;63009;52.584;5.932;2023-09-19T00:07:50;100468.47;;;13.82;100.00
74529;BME280;63009;52.584;5.932;2023-09-19T00:10:16;100464.34;;;13.78;100.00
74529;BME280;63009;52.584;5.932;2023-09-19T00:12:43;100475.44;;;13.72;100.00
74529;BME280;63009;52.584;5.932;2023-09-19T00:15:09;100479.56;;;13.76;100.00
74529;BME280;63009;52.584;5.932;2023-09-19T00:17:35;100469.53;;;13.69;100.00
74529;BME280;63009;52.584;5.932;2023-09-19T00:20:03;100482.44;;;13.73;100.00
74529;BME280;63009;52.584;5.932;2023-09-19T00:22:32;100483.28;;;13.62;100.00
74529;BME280;63009;52.584;5.932;2023-09-19T00:24:57;100489.66;;;13.60;100.00
74529;BME280;63009;52.584;5.932;2023-09-19T00:27:22;100492.19;;;13.61;100.00
74529;BME280;63009;52.584;5.932;2023-09-19T00:29:47;100487.72;;;13.62;100.00
74529;BME280;63009;52.584;5.932;2023-09-19T00:32:13;100486.78;;;13.63;100.00
74529;BME280;63009;52.584;5.932;2023-09-19T00:34:38;100485.44;;;13.57;100.00
74529;BME280;63009;52.584;5.932;2023-09-19T00:37:03;100484.00;;;13.53;100.00
74529;BME280;63009;52.584;5.932;2023-09-19T00:39:29;100492.16;;;13.50;100.00
74529;BME280;63009;52.584;5.932;2023-09-19T00:41:56;100496.75;;;13.48;100.00
74529;BME280;63009;52.584;5.932;2023-09-19T00:44:21;100494.69;;;13.41;100.00
74529;BME280;63009;52.584;5.932;2023-09-19T00:46:48;100497.59;;;13.49;100.00
74529;BME280;63009;52.584;5.932;2023-09-19T00:49:15;100500.63;;;13.44;100.00
74529;BME280;63009;52.584;5.932;2023-09-19T00:51:41;100514.13;;;13.41;100.00
74529;BME280;63009;52.584;5.932;2023-09-19T00:54:10;100510.16;;;13.47;100.00
74529;BME280;63009;52.584;5.932;2023-09-19T00:56:38;100497.22;;;13.42;100.00
74529;BME280;63009;52.584;5.932;2023-09-19T00:59:05;100503.63;;;13.40;100.00
74529;BME280;63009;52.584;5.932;2023-09-19T01:01:31;100506.28;;;13.40;100.00
74529;BME280;63009;52.584;5.932;2023-09-19T01:03:57;100509.91;;;13.39;100.00
74529;BME280;63009;52.584;5.932;2023-09-19T01:06:22;100514.56;;;13.35;100.00
74529;BME280;63009;52.584;5.932;2023-09-19T01:08:47;100513.72;;;13.34;100.00
74529;BME280;63009;52.584;5.932;2023-09-19T01:11:20;100514.19;;;13.28;100.00
74529;BME280;63009;52.584;5.932;2023-09-19T01:13:57;100528.19;;;13.30;100.00
74529;BME280;63009;52.584;5.932;2023-09-19T01:16:42;100522.16;;;13.28;100.00
74529;BME280;63009;52.584;5.932;2023-09-19T01:28:02;100528.47;;;13.39;100.00
74529;BME280;63009;52.584;5.932;2023-09-19T01:30:33;100523.84;;;13.29;100.00
74529;BME280;63009;52.584;5.932;2023-09-19T01:33:01;100525.81;;;13.39;100.00
74529;BME280;63009;52.584;5.932;2023-09-19T01:35:26;100525.81;;;13.39;100.00
74529;BME280;63009;52.584;5.932;2023-09-19T01:37:52;100523.16;;;13.39;100.00
74529;BME280;63009;52.584;5.932;2023-09-19T01:40:20;100527.00;;;13.34;100.00
74529;BME280;63009;52.584;5.932;2023-09-19T01:43:09;100524.75;;;13.41;100.00
74529;BME280;63009;52.584;5.932;2023-09-19T01:45:59;100532.31;;;13.34;100.00
74529;BME280;63009;52.584;5.932;2023-09-19T01:48:42;100530.84;;;13.30;100.00
74529;BME280;63009;52.584;5.932;2023-09-19T01:51:14;100536.16;;;13.30;100.00
74529;BME280;63009;52.584;5.932;2023-09-19T01:53:51;100532.09;;;13.38;100.00
74529;BME280;63009;52.584;5.932;2023-09-19T01:59:09;100526.63;;;13.28;100.00
74529;BME280;63009;52.584;5.932;2023-09-19T02:01:36;100538.94;;;13.29;100.00
74529;BME280;63009;52.584;5.932;2023-09-19T02:04:03;100537.59;;;13.23;100.00
74529;BME280;63009;52.584;5.932;2023-09-19T02:06:29;100528.53;;;13.26;100.00
74529;BME280;63009;52.584;5.932;2023-09-19T02:08:55;100525.16;;;13.24;100.00
74529;BME280;63009;52.584;5.932;2023-09-19T02:11:20;100529.84;;;13.20;100.00
74529;BME280;63009;52.584;5.932;2023-09-19T02:13:46;100527.38;;;13.17;100.00
74529;BME280;63009;52.584;5.932;2023-09-19T02:16:11;100517.97;;;13.13;100.00
74529;BME280;63009;52.584;5.932;2023-09-19T02:18:37;100517.56;;;13.06;100.00
74529;BME280;63009;52.584;5.932;2023-09-19T02:21:04;100520.22;;;13.06;100.00
74529;BME280;63009;52.584;5.932;2023-09-19T02:23:32;100533.75;;;13.15;100.00
74529;BME280;63009;52.584;5.932;2023-09-19T02:25:58;100537.25;;;13.15;100.00
74529;BME280;63009;52.584;5.932;2023-09-19T02:28:26;100530.03;;;13.17;100.00
74529;BME280;63009;52.584;5.932;2023-09-19T02:30:55;100531.31;;;13.24;100.00
74529;BME280;63009;52.584;5.932;2023-09-19T02:33:21;100545.75;;;13.20;100.00
74529;BME280;63009;52.584;5.932;2023-09-19T02:35:46;100546.59;;;13.21;100.00
74529;BME280;63009;52.584;5.932;2023-09-19T02:38:12;100543.09;;;13.20;100.00
74529;BME280;63009;52.584;5.932;2023-09-19T02:40:37;100542.91;;;13.23;100.00
74529;BME280;63009;52.584;5.932;2023-09-19T02:43:03;100523.97;;;13.28;100.00
74529;BME280;63009;52.584;5.932;2023-09-19T02:45:30;100536.28;;;13.29;100.00
74529;BME280;63009;52.584;5.932;2023-09-19T02:47:55;100539.03;;;13.27;100.00
74529;BME280;63009;52.584;5.932;2023-09-19T02:50:20;100548.94;;;13.25;100.00
74529;BME280;63009;52.584;5.932;2023-09-19T02:52:46;100543.94;;;13.21;100.00
74529;BME280;63009;52.584;5.932;2023-09-19T02:55:18;100559.31;;;13.28;100.00
74529;BME280;63009;52.584;5.932;2023-09-19T02:57:48;100549.91;;;13.24;100.00
74529;BME280;63009;52.584;5.932;2023-09-19T03:00:14;100549.31;;;13.32;100.00
74529;BME280;63009;52.584;5.932;2023-09-19T03:02:40;100556.25;;;13.46;100.00
74529;BME280;63009;52.584;5.932;2023-09-19T03:05:07;100535.59;;;13.38;100.00
74529;BME280;63009;52.584;5.932;2023-09-19T03:07:32;100554.31;;;13.48;100.00
74529;BME280;63009;52.584;5.932;2023-09-19T03:09:58;100557.13;;;13.57;100.00
74529;BME280;63009;52.584;5.932;2023-09-19T03:12:25;100559.31;;;13.52;100.00
74529;BME280;63009;52.584;5.932;2023-09-19T03:14:50;100550.38;;;13.53;100.00
74529;BME280;63009;52.584;5.932;2023-09-19T03:17:15;100538.44;;;13.59;100.00
74529;BME280;63009;52.584;5.932;2023-09-19T03:19:41;100539.41;;;13.58;100.00
74529;BME280;63009;52.584;5.932;2023-09-19T03:22:06;100528.91;;;13.56;100.00
74529;BME280;63009;52.584;5.932;2023-09-19T03:24:32;100533.25;;;13.57;100.00
74529;BME280;63009;52.584;5.932;2023-09-19T03:27:00;100524.19;;;13.60;100.00
74529;BME280;63009;52.584;5.932;2023-09-19T03:29:25;100529.13;;;13.53;100.00
74529;BME280;63009;52.584;5.932;2023-09-19T03:31:52;100544.34;;;13.51;100.00
74529;BME280;63009;52.584;5.932;2023-09-19T03:34:19;100547.06;;;13.50;100.00
74529;BME280;63009;52.584;5.932;2023-09-19T03:36:44;100542.84;;;13.47;100.00
74529;BME280;63009;52.584;5.932;2023-09-19T03:39:10;100556.66;;;13.52;100.00
74529;BME280;63009;52.584;5.932;2023-09-19T03:41:35;100537.41;;;13.49;100.00
74529;BME280;63009;52.584;5.932;2023-09-19T03:44:01;100539.97;;;13.50;100.00
74529;BME280;63009;52.584;5.932;2023-09-19T03:46:27;100539.13;;;13.50;100.00
74529;BME280;63009;52.584;5.932;2023-09-19T03:48:53;100523.69;;;13.55;100.00
74529;BME280;63009;52.584;5.932;2023-09-19T03:51:19;100525.84;;;13.50;100.00
74529;BME280;63009;52.584;5.932;2023-09-19T03:53:44;100517.66;;;13.53;100.00
74529;BME280;63009;52.584;5.932;2023-09-19T03:56:10;100526.59;;;13.52;100.00
74529;BME280;63009;52.584;5.932;2023-09-19T03:58:35;100526.81;;;13.49;100.00
74529;BME280;63009;52.584;5.932;2023-09-19T04:01:04;100542.00;;;13.47;100.00
74529;BME280;63009;52.584;5.932;2023-09-19T04:03:29;100539.47;;;13.45;100.00
74529;BME280;63009;52.584;5.932;2023-09-19T04:06:13;100544.66;;;13.47;100.00
74529;BME280;63009;52.584;5.932;2023-09-19T04:08:38;100559.91;;;13.56;100.00
74529;BME280;63009;52.584;5.932;2023-09-19T04:11:03;100552.38;;;13.50;100.00
74529;BME280;63009;52.584;5.932;2023-09-19T04:13:28;100567.72;;;13.46;100.00
74529;BME280;63009;52.584;5.932;2023-09-19T04:15:54;100569.28;;;13.49;100.00
74529;BME280;63009;52.584;5.932;2023-09-19T04:18:20;100558.91;;;13.46;100.00
74529;BME280;63009;52.584;5.932;2023-09-19T04:20:49;100567.03;;;13.55;100.00
74529;BME280;63009;52.584;5.932;2023-09-19T04:23:14;100573.03;;;13.46;100.00
74529;BME280;63009;52.584;5.932;2023-09-19T04:25:40;100577.59;;;13.44;100.00
74529;BME280;63009;52.584;5.932;2023-09-19T04:28:06;100573.38;;;13.42;100.00
74529;BME280;63009;52.584;5.932;2023-09-19T04:30:31;100586.13;;;13.36;100.00
74529;BME280;63009;52.584;5.932;2023-09-19T04:32:56;100569.69;;;13.31;100.00
74529;BME280;63009;52.584;5.932;2023-09-19T04:35:22;100577.78;;;13.30;100.00
74529;BME280;63009;52.584;5.932;2023-09-19T04:37:47;100594.09;;;13.36;100.00
74529;BME280;63009;52.584;5.932;2023-09-19T04:40:13;100585.38;;;13.34;100.00
74529;BME280;63009;52.584;5.932;2023-09-19T04:42:43;100590.94;;;13.31;100.00
74529;BME280;63009;52.584;5.932;2023-09-19T04:45:09;100601.56;;;13.31;100.00
74529;BME280;63009;52.584;5.932;2023-09-19T04:47:36;100601.28;;;13.23;100.00
74529;BME280;63009;52.584;5.932;2023-09-19T04:50:03;100607.84;;;13.18;100.00
74529;BME280;63009;52.584;5.932;2023-09-19T04:52:30;100609.56;;;13.19;100.00
74529;BME280;63009;52.584;5.932;2023-09-19T04:54:56;100610.09;;;13.11;100.00
74529;BME280;63009;52.584;5.932;2023-09-19T04:57:21;100609.38;;;13.09;100.00
74529;BME280;63009;52.584;5.932;2023-09-19T04:59:46;100599.69;;;13.08;100.00
74529;BME280;63009;52.584;5.932;2023-09-19T05:02:12;100602.78;;;13.02;100.00
74529;BME280;63009;52.584;5.932;2023-09-19T05:04:37;100602.69;;;13.03;100.00
74529;BME280;63009;52.584;5.932;2023-09-19T05:07:02;100605.22;;;13.05;100.00
74529;BME280;63009;52.584;5.932;2023-09-19T05:09:28;100609.56;;;13.06;100.00
74529;BME280;63009;52.584;5.932;2023-09-19T05:11:54;100607.88;;;13.05;100.00
74529;BME280;63009;52.584;5.932;2023-09-19T05:14:19;100613.63;;;12.99;100.00
74529;BME280;63009;52.584;5.932;2023-09-19T05:16:45;100599.22;;;12.90;100.00
74529;BME280;63009;52.584;5.932;2023-09-19T05:19:10;100607.91;;;12.92;100.00
74529;BME280;63009;52.584;5.932;2023-09-19T05:21:37;100618.41;;;12.94;100.00
74529;BME280;63009;52.584;5.932;2023-09-19T05:24:04;100616.59;;;12.94;100.00
74529;BME280;63009;52.584;5.932;2023-09-19T05:26:31;100614.72;;;12.96;100.00
74529;BME280;63009;52.584;5.932;2023-09-19T05:28:57;100611.41;;;12.93;100.00
74529;BME280;63009;52.584;5.932;2023-09-19T05:31:22;100606.22;;;12.91;100.00
74529;BME280;63009;52.584;5.932;2023-09-19T05:33:48;100612.91;;;12.97;100.00
74529;BME280;63009;52.584;5.932;2023-09-19T05:36:14;100607.59;;;12.97;100.00
74529;BME280;63009;52.584;5.932;2023-09-19T05:38:41;100603.75;;;13.01;100.00
74529;BME280;63009;52.584;5.932;2023-09-19T05:41:08;100624.25;;;12.99;100.00
74529;BME280;63009;52.584;5.932;2023-09-19T05:43:34;100618.81;;;13.00;100.00
74529;BME280;63009;52.584;5.932;2023-09-19T05:46:02;100623.41;;;12.98;100.00
74529;BME280;63009;52.584;5.932;2023-09-19T05:48:28;100623.25;;;13.13;100.00
74529;BME280;63009;52.584;5.932;2023-09-19T05:50:53;100605.63;;;13.12;100.00
74529;BME280;63009;52.584;5.932;2023-09-19T05:53:18;100617.59;;;13.17;100.00
74529;BME280;63009;52.584;5.932;2023-09-19T05:55:43;100613.66;;;13.23;100.00
74529;BME280;63009;52.584;5.932;2023-09-19T05:58:09;100628.75;;;13.22;100.00
74529;BME280;63009;52.584;5.932;2023-09-19T06:00:35;100632.38;;;13.21;100.00
74529;BME280;63009;52.584;5.932;2023-09-19T06:03:01;100634.06;;;13.22;100.00
74529;BME280;63009;52.584;5.932;2023-09-19T06:05:27;100646.78;;;13.17;100.00
74529;BME280;63009;52.584;5.932;2023-09-19T06:07:53;100632.69;;;13.17;100.00
74529;BME280;63009;52.584;5.932;2023-09-19T06:10:19;100648.09;;;13.24;100.00
74529;BME280;63009;52.584;5.932;2023-09-19T06:12:46;100650.81;;;13.23;100.00
74529;BME280;63009;52.584;5.932;2023-09-19T06:15:16;100654.44;;;13.22;100.00
74529;BME280;63009;52.584;5.932;2023-09-19T06:17:47;100647.31;;;13.22;100.00
74529;BME280;63009;52.584;5.932;2023-09-19T06:20:13;100649.78;;;13.25;100.00
74529;BME280;63009;52.584;5.932;2023-09-19T06:22:43;100656.13;;;13.23;100.00
74529;BME280;63009;52.584;5.932;2023-09-19T06:25:10;100643.94;;;13.20;100.00
74529;BME280;63009;52.584;5.932;2023-09-19T06:27:44;100659.22;;;13.29;100.00
74529;BME280;63009;52.584;5.932;2023-09-19T06:30:10;100643.63;;;13.25;100.00
74529;BME280;63009;52.584;5.932;2023-09-19T06:32:44;100651.38;;;13.28;100.00
74529;BME280;63009;52.584;5.932;2023-09-19T06:35:11;100644.63;;;13.35;100.00
74529;BME280;63009;52.584;5.932;2023-09-19T06:37:37;100646.56;;;13.33;100.00
74529;BME280;63009;52.584;5.932;2023-09-19T06:40:13;100641.81;;;13.25;100.00
74529;BME280;63009;52.584;5.932;2023-09-19T06:43:06;100652.41;;;13.38;100.00
74529;BME280;63009;52.584;5.932;2023-09-19T06:45:31;100648.81;;;13.50;100.00
74529;BME280;63009;52.584;5.932;2023-09-19T06:47:57;100648.38;;;13.56;100.00
74529;BME280;63009;52.584;5.932;2023-09-19T06:50:25;100657.03;;;13.71;100.00
74529;BME280;63009;52.584;5.932;2023-09-19T06:52:53;100654.38;;;13.71;100.00
74529;BME280;63009;52.584;5.932;2023-09-19T06:55:20;100648.75;;;13.87;100.00
74529;BME280;63009;52.584;5.932;2023-09-19T06:57:46;100645.06;;;14.01;100.00
74529;BME280;63009;52.584;5.932;2023-09-19T07:00:13;100637.97;;;14.12;100.00
74529;BME280;63009;52.584;5.932;2023-09-19T07:03:05;100642.06;;;14.16;100.00
74529;BME280;63009;52.584;5.932;2023-09-19T07:05:33;100644.84;;;14.15;100.00
74529;BME280;63009;52.584;5.932;2023-09-19T07:08:01;100647.38;;;14.16;100.00
74529;BME280;63009;52.584;5.932;2023-09-19T07:10:27;100644.47;;;14.08;100.00
74529;BME280;63009;52.584;5.932;2023-09-19T07:13:04;100655.34;;;14.16;100.00
74529;BME280;63009;52.584;5.932;2023-09-19T07:15:32;100649.69;;;14.21;100.00
74529;BME280;63009;52.584;5.932;2023-09-19T07:18:02;100653.56;;;14.28;100.00
74529;BME280;63009;52.584;5.932;2023-09-19T07:20:27;100656.47;;;14.25;100.00
74529;BME280;63009;52.584;5.932;2023-09-19T07:22:54;100665.78;;;14.31;100.00
74529;BME280;63009;52.584;5.932;2023-09-19T07:25:20;100666.28;;;14.36;100.00
74529;BME280;63009;52.584;5.932;2023-09-19T07:27:46;100677.94;;;14.46;100.00
74529;BME280;63009;52.584;5.932;2023-09-19T07:30:12;100672.03;;;14.53;100.00
74529;BME280;63009;52.584;5.932;2023-09-19T07:32:37;100669.47;;;14.63;100.00
74529;BME280;63009;52.584;5.932;2023-09-19T07:35:03;100664.81;;;14.78;100.00
74529;BME280;63009;52.584;5.932;2023-09-19T07:37:30;100660.66;;;14.85;100.00
74529;BME280;63009;52.584;5.932;2023-09-19T07:39:58;100664.19;;;14.97;100.00
74529;BME280;63009;52.584;5.932;2023-09-19T07:42:24;100668.16;;;15.02;100.00
74529;BME280;63009;52.584;5.932;2023-09-19T07:44:50;100670.69;;;15.04;100.00
74529;BME280;63009;52.584;5.932;2023-09-19T07:47:16;100667.94;;;14.94;100.00
74529;BME280;63009;52.584;5.932;2023-09-19T07:49:41;100681.47;;;15.02;100.00
74529;BME280;63009;52.584;5.932;2023-09-19T07:52:08;100685.22;;;15.11;100.00
74529;BME280;63009;52.584;5.932;2023-09-19T07:54:34;100687.16;;;15.20;100.00
74529;BME280;63009;52.584;5.932;2023-09-19T07:57:01;100672.50;;;15.26;100.00
74529;BME280;63009;52.584;5.932;2023-09-19T07:59:26;100682.88;;;15.40;100.00
74529;BME280;63009;52.584;5.932;2023-09-19T08:01:51;100686.97;;;15.55;100.00
74529;BME280;63009;52.584;5.932;2023-09-19T08:04:17;100682.72;;;15.53;100.00
74529;BME280;63009;52.584;5.932;2023-09-19T08:06:44;100691.78;;;15.72;100.00
74529;BME280;63009;52.584;5.932;2023-09-19T08:09:09;100691.88;;;15.82;100.00
74529;BME280;63009;52.584;5.932;2023-09-19T08:11:36;100684.31;;;15.87;100.00
74529;BME280;63009;52.584;5.932;2023-09-19T08:14:01;100683.63;;;15.85;100.00
74529;BME280;63009;52.584;5.932;2023-09-19T08:16:26;100680.31;;;15.93;100.00
74529;BME280;63009;52.584;5.932;2023-09-19T08:18:52;100684.75;;;16.03;100.00
74529;BME280;63009;52.584;5.932;2023-09-19T08:21:20;100683.03;;;16.02;100.00
74529;BME280;63009;52.584;5.932;2023-09-19T08:23:45;100685.53;;;16.15;100.00
74529;BME280;63009;52.584;5.932;2023-09-19T08:26:10;100685.22;;;16.09;100.00
74529;BME280;63009;52.584;5.932;2023-09-19T08:28:36;100682.03;;;16.15;100.00
74529;BME280;63009;52.584;5.932;2023-09-19T08:31:05;100671.16;;;16.27;100.00
74529;BME280;63009;52.584;5.932;2023-09-19T08:33:35;100669.41;;;16.38;100.00
74529;BME280;63009;52.584;5.932;2023-09-19T08:36:01;100668.31;;;16.61;100.00
74529;BME280;63009;52.584;5.932;2023-09-19T08:38:27;100682.81;;;16.68;100.00
74529;BME280;63009;52.584;5.932;2023-09-19T08:40:57;100683.84;;;16.77;100.00
74529;BME280;63009;52.584;5.932;2023-09-19T08:43:24;100683.31;;;16.83;100.00
74529;BME280;63009;52.584;5.932;2023-09-19T08:45:49;100683.94;;;16.96;99.66
74529;BME280;63009;52.584;5.932;2023-09-19T08:50:48;100675.84;;;17.07;100.00
74529;BME280;63009;52.584;5.932;2023-09-19T08:53:21;100674.66;;;17.00;98.49
74529;BME280;63009;52.584;5.932;2023-09-19T08:55:50;100676.41;;;17.11;98.98
74529;BME280;63009;52.584;5.932;2023-09-19T08:58:16;100677.81;;;17.15;96.09
74529;BME280;63009;52.584;5.932;2023-09-19T09:00:48;100668.94;;;17.14;99.48
74529;BME280;63009;52.584;5.932;2023-09-19T09:03:15;100674.09;;;16.97;98.17
74529;BME280;63009;52.584;5.932;2023-09-19T09:05:42;100673.97;;;16.98;98.79
74529;BME280;63009;52.584;5.932;2023-09-19T09:08:11;100679.22;;;17.09;98.20
74529;BME280;63009;52.584;5.932;2023-09-19T09:10:37;100665.59;;;17.22;98.65
74529;BME280;63009;52.584;5.932;2023-09-19T09:13:03;100683.00;;;17.16;96.48
74529;BME280;63009;52.584;5.932;2023-09-19T09:15:30;100682.53;;;17.32;97.66
74529;BME280;63009;52.584;5.932;2023-09-19T09:17:58;100698.25;;;17.35;96.69
74529;BME280;63009;52.584;5.932;2023-09-19T09:20:23;100669.84;;;17.25;96.49
74529;BME280;63009;52.584;5.932;2023-09-19T09:22:55;100682.31;;;17.14;97.53
74529;BME280;63009;52.584;5.932;2023-09-19T09:25:54;100678.28;;;17.30;96.95
74529;BME280;63009;52.584;5.932;2023-09-19T09:28:21;100673.81;;;17.40;97.06
74529;BME280;63009;52.584;5.932;2023-09-19T09:30:47;100683.53;;;17.50;96.31
74529;BME280;63009;52.584;5.932;2023-09-19T09:33:14;100680.19;;;17.68;94.40
74529;BME280;63009;52.584;5.932;2023-09-19T09:35:56;100690.31;;;17.64;92.78
74529;BME280;63009;52.584;5.932;2023-09-19T09:38:27;100693.44;;;17.69;93.53
74529;BME280;63009;52.584;5.932;2023-09-19T09:40:54;100676.72;;;17.77;94.42
74529;BME280;63009;52.584;5.932;2023-09-19T09:43:40;100700.34;;;17.91;93.36
74529;BME280;63009;52.584;5.932;2023-09-19T09:46:20;100686.81;;;17.73;91.93
74529;BME280;63009;52.584;5.932;2023-09-19T09:51:48;100699.50;;;17.81;91.75
74529;BME280;63009;52.584;5.932;2023-09-19T09:54:25;100688.03;;;17.50;93.43
74529;BME280;63009;52.584;5.932;2023-09-19T09:57:05;100688.28;;;17.37;93.53
74529;BME280;63009;52.584;5.932;2023-09-19T10:02:15;100668.44;;;17.30;94.17
74529;BME280;63009;52.584;5.932;2023-09-19T10:04:50;100661.56;;;17.37;96.16
74529;BME280;63009;52.584;5.932;2023-09-19T10:07:39;100669.47;;;17.48;95.92
74529;BME280;63009;52.584;5.932;2023-09-19T10:10:14;100673.03;;;17.68;93.90
74529;BME280;63009;52.584;5.932;2023-09-19T10:12:49;100664.72;;;17.71;94.31
74529;BME280;63009;52.584;5.932;2023-09-19T10:15:17;100671.31;;;17.67;89.42
74529;BME280;63009;52.584;5.932;2023-09-19T10:17:46;100671.66;;;17.74;88.79
74529;BME280;63009;52.584;5.932;2023-09-19T10:20:13;100670.78;;;17.73;89.76
74529;BME280;63009;52.584;5.932;2023-09-19T10:22:50;100658.66;;;17.60;91.80
74529;BME280;63009;52.584;5.932;2023-09-19T10:25:27;100658.78;;;17.48;93.97
74529;BME280;63009;52.584;5.932;2023-09-19T10:28:02;100658.34;;;17.34;94.81
74529;BME280;63009;52.584;5.932;2023-09-19T10:30:32;100663.38;;;17.27;94.91
74529;BME280;63009;52.584;5.932;2023-09-19T10:33:04;100664.31;;;17.16;96.23
74529;BME280;63009;52.584;5.932;2023-09-19T10:35:32;100659.94;;;17.06;95.56
74529;BME280;63009;52.584;5.932;2023-09-19T10:38:00;100657.31;;;17.25;96.73
74529;BME280;63009;52.584;5.932;2023-09-19T10:40:27;100651.41;;;17.31;95.91
74529;BME280;63009;52.584;5.932;2023-09-19T10:43:05;100658.34;;;17.43;96.70
74529;BME280;63009;52.584;5.932;2023-09-19T10:45:35;100637.09;;;17.32;93.80
74529;BME280;63009;52.584;5.932;2023-09-19T10:48:01;100637.53;;;17.57;98.69
74529;BME280;63009;52.584;5.932;2023-09-19T10:50:32;100637.16;;;17.80;95.02
74529;BME280;63009;52.584;5.932;2023-09-19T10:53:01;100640.81;;;17.79;93.69
74529;BME280;63009;52.584;5.932;2023-09-19T10:55:31;100616.75;;;17.79;94.15
74529;BME280;63009;52.584;5.932;2023-09-19T10:57:58;100615.31;;;17.66;94.77
74529;BME280;63009;52.584;5.932;2023-09-19T11:00:25;100603.94;;;17.73;94.00
74529;BME280;63009;52.584;5.932;2023-09-19T11:03:19;100617.75;;;17.88;93.28
74529;BME280;63009;52.584;5.932;2023-09-19T11:06:08;100616.91;;;17.78;94.74
74529;BME280;63009;52.584;5.932;2023-09-19T11:09:01;100610.97;;;17.84;93.86
74529;BME280;63009;52.584;5.932;2023-09-19T11:11:48;100611.69;;;17.86;95.47
74529;BME280;63009;52.584;5.932;2023-09-19T11:30:49;100599.16;;;17.96;90.58
74529;BME280;63009;52.584;5.932;2023-09-19T11:33:16;100594.94;;;18.03;91.55
74529;BME280;63009;52.584;5.932;2023-09-19T11:36:11;100592.06;;;18.15;93.89
74529;BME280;63009;52.584;5.932;2023-09-19T11:46:29;100590.59;;;17.93;93.22
74529;BME280;63009;52.584;5.932;2023-09-19T11:49:05;100594.19;;;18.01;94.04
74529;BME280;63009;52.584;5.932;2023-09-19T11:51:40;100596.06;;;17.91;92.88
74529;BME280;63009;52.584;5.932;2023-09-19T11:54:10;100600.16;;;17.76;92.04
74529;BME280;63009;52.584;5.932;2023-09-19T11:56:41;100595.81;;;17.75;93.53
74529;BME280;63009;52.584;5.932;2023-09-19T11:59:06;100604.94;;;17.72;94.11
74529;BME280;63009;52.584;5.932;2023-09-19T12:01:33;100598.75;;;17.72;94.38
74529;BME280;63009;52.584;5.932;2023-09-19T12:04:01;100594.97;;;17.74;94.18
74529;BME280;63009;52.584;5.932;2023-09-19T12:06:30;100574.53;;;18.02;96.65
74529;BME280;63009;52.584;5.932;2023-09-19T12:08:58;100578.34;;;18.37;95.22
74529;BME280;63009;52.584;5.932;2023-09-19T12:11:31;100581.09;;;18.64;92.86
74529;BME280;63009;52.584;5.932;2023-09-19T12:14:01;100584.47;;;18.66;93.05
74529;BME280;63009;52.584;5.932;2023-09-19T12:16:27;100573.97;;;18.46;90.49
74529;BME280;63009;52.584;5.932;2023-09-19T12:18:56;100572.84;;;18.38;91.35
74529;BME280;63009;52.584;5.932;2023-09-19T12:26:28;100580.38;;;18.16;92.77
74529;BME280;63009;52.584;5.932;2023-09-19T12:28:55;100572.09;;;18.09;92.26
74529;BME280;63009;52.584;5.932;2023-09-19T12:31:21;100579.16;;;18.00;93.02
74529;BME280;63009;52.584;5.932;2023-09-19T12:33:53;100578.31;;;18.00;92.66
74529;BME280;63009;52.584;5.932;2023-09-19T12:36:22;100575.09;;;17.96;91.32
74529;BME280;63009;52.584;5.932;2023-09-19T12:38:54;100569.75;;;17.96;92.26
74529;BME280;63009;52.584;5.932;2023-09-19T12:41:20;100570.19;;;17.92;92.10
74529;BME280;63009;52.584;5.932;2023-09-19T12:43:47;100561.47;;;17.90;91.54
74529;BME280;63009;52.584;5.932;2023-09-19T12:46:13;100580.31;;;17.88;93.46
74529;BME280;63009;52.584;5.932;2023-09-19T12:48:40;100543.84;;;17.87;93.29
74529;BME280;63009;52.584;5.932;2023-09-19T12:51:10;100563.56;;;17.86;91.31
74529;BME280;63009;52.584;5.932;2023-09-19T12:53:45;100562.84;;;17.84;91.24
74529;BME280;63009;52.584;5.932;2023-09-19T12:56:14;100576.53;;;17.81;92.35
74529;BME280;63009;52.584;5.932;2023-09-19T13:01:15;100549.63;;;17.73;92.28
74529;BME280;63009;52.584;5.932;2023-09-19T13:03:41;100556.13;;;17.70;92.85
74529;BME280;63009;52.584;5.932;2023-09-19T13:06:07;100568.34;;;17.73;92.10
74529;BME280;63009;52.584;5.932;2023-09-19T13:08:35;100568.09;;;17.76;91.23
74529;BME280;63009;52.584;5.932;2023-09-19T13:11:05;100564.00;;;17.82;92.93
74529;BME280;63009;52.584;5.932;2023-09-19T13:13:31;100569.50;;;17.80;91.80
74529;BME280;63009;52.584;5.932;2023-09-19T13:15:57;100571.72;;;17.85;93.83
74529;BME280;63009;52.584;5.932;2023-09-19T13:18:23;100573.41;;;17.86;93.12
74529;BME280;63009;52.584;5.932;2023-09-19T13:21:08;100559.63;;;17.90;93.25
74529;BME280;63009;52.584;5.932;2023-09-19T13:23:37;100561.28;;;18.01;93.18
74529;BME280;63009;52.584;5.932;2023-09-19T13:26:03;100571.84;;;18.02;91.57
74529;BME280;63009;52.584;5.932;2023-09-19T13:28:30;100559.44;;;18.11;92.28
74529;BME280;63009;52.584;5.932;2023-09-19T13:30:56;100556.44;;;18.24;92.66
74529;BME280;63009;52.584;5.932;2023-09-19T13:33:22;100551.38;;;18.30;91.53
74529;BME280;63009;52.584;5.932;2023-09-19T13:35:47;100555.44;;;18.25;91.37
74529;BME280;63009;52.584;5.932;2023-09-19T13:38:13;100551.78;;;18.26;91.16
74529;BME280;63009;52.584;5.932;2023-09-19T13:40:39;100552.19;;;18.31;90.67